EGXW - Waddington
Distance from station: E 5mi, 14km
Updated: 12/16/2017 1:50pm
Clear
Clear
 Wind from W
Wind: W 8 mph , 13 km/h
Temperature: 34°F , 1°C
Wind Chill: 27°F , -3°C
Dew Point: 32°F , 0°C
Humidity: 93%
Barometer: 30.15 inHg , 1021 hPa
Summary: Clear
Visibility: greater than 7 miles , 10 km
2017/12/16 21:50 EGXW 162150Z 28007KT CAVOK 01/M00 Q1021 BLU